createdAt,value
2022-11-20T00:01:42.227Z,97543.81
2022-11-20T00:04:13.341Z,97536.16
2022-11-20T00:06:41.708Z,97544.63
2022-11-20T00:09:12.665Z,97537.91
2022-11-20T00:11:41.173Z,97526.06
2022-11-20T00:14:09.632Z,97533.56
2022-11-20T00:16:39.559Z,97525.09
2022-11-20T00:19:07.973Z,97531.91
2022-11-20T00:21:36.719Z,97529.38
2022-11-20T00:24:05.299Z,97517.56
2022-11-20T00:26:33.678Z,97524.34
2022-11-20T00:29:03.713Z,97530.25
2022-11-20T00:31:34.270Z,97542.84
2022-11-20T00:34:04.385Z,97526.84
2022-11-20T00:36:36.121Z,97536.94
2022-11-20T00:39:04.522Z,97529.28
2022-11-20T00:41:33.087Z,97539.47
2022-11-20T00:44:01.788Z,97539.59
2022-11-20T00:46:30.747Z,97547.97
2022-11-20T00:48:59.388Z,97526.88
2022-11-20T00:51:30.036Z,97535.19
2022-11-20T00:53:59.546Z,97538.66
2022-11-20T00:56:28.859Z,97532.63
2022-11-20T00:58:57.716Z,97538.50
2022-11-20T01:01:30.384Z,97529.16
2022-11-20T01:04:00.925Z,97524.16
2022-11-20T01:06:32.491Z,97522.47
2022-11-20T01:09:03.363Z,97523.31
2022-11-20T01:11:34.363Z,97531.66
2022-11-20T01:14:05.014Z,97539.34
2022-11-20T01:16:36.381Z,97537.72
2022-11-20T01:19:07.493Z,97542.75
2022-11-20T01:21:38.983Z,97538.56
2022-11-20T01:24:09.894Z,97545.34
2022-11-20T01:26:40.446Z,97547.03
2022-11-20T01:29:13.124Z,97544.50
2022-11-20T01:31:41.495Z,97551.31
2022-11-20T01:34:13.089Z,97545.34
2022-11-20T01:36:43.800Z,97536.88
2022-11-20T01:39:16.077Z,97526.81
2022-11-20T01:42:08.384Z,97529.28
2022-11-20T01:44:53.620Z,97530.13
2022-11-20T01:47:28.166Z,97522.56
2022-11-20T01:50:01.693Z,97529.28
2022-11-20T01:52:37.249Z,97526.78
2022-11-20T01:55:10.320Z,97531.03
2022-11-20T01:57:40.407Z,97509.13
2022-11-20T02:00:11.797Z,97517.56
2022-11-20T02:02:41.826Z,97526.84
2022-11-20T02:05:17.598Z,97519.34
2022-11-20T02:07:48.761Z,97516.78
2022-11-20T02:10:17.462Z,97516.78
2022-11-20T02:13:03.322Z,97514.25
2022-11-20T02:15:32.050Z,97513.38
2022-11-20T02:18:00.621Z,97510.00
2022-11-20T02:20:29.161Z,97505.75
2022-11-20T02:23:02.498Z,97511.69
2022-11-20T02:25:35.448Z,97516.94
2022-11-20T02:28:04.584Z,97524.44
2022-11-20T02:30:32.826Z,97516.88
2022-11-20T02:33:01.466Z,97509.25
2022-11-20T02:35:44.581Z,97504.13
2022-11-20T02:38:13.159Z,97507.47
2022-11-20T02:40:43.256Z,97506.69
2022-11-20T02:43:11.663Z,97509.19
2022-11-20T02:45:40.468Z,97506.69
2022-11-20T02:48:10.049Z,97505.81
2022-11-20T02:50:41.690Z,97502.44
2022-11-20T02:53:10.387Z,97504.16
2022-11-20T02:55:38.683Z,97514.25
2022-11-20T02:58:09.034Z,97507.47
2022-11-20T03:00:37.896Z,97515.06
2022-11-20T03:03:07.028Z,97506.69
2022-11-20T03:05:35.578Z,97505.81
2022-11-20T03:08:04.155Z,97499.06
2022-11-20T03:10:32.655Z,97500.75
2022-11-20T03:13:01.475Z,97499.09
2022-11-20T03:15:31.780Z,97499.94
2022-11-20T03:18:00.965Z,97496.56
2022-11-20T03:20:29.420Z,97484.69
2022-11-20T03:22:58.001Z,97499.09
2022-11-20T03:25:26.463Z,97493.16
2022-11-20T03:27:55.489Z,97500.75
2022-11-20T03:30:27.609Z,97494.09
2022-11-20T03:32:59.182Z,97494.88
2022-11-20T03:35:27.433Z,97495.66
2022-11-20T03:37:55.670Z,97488.94
2022-11-20T03:40:24.135Z,97488.09
2022-11-20T03:42:52.558Z,97483.06
2022-11-20T03:45:20.930Z,97482.22
2022-11-20T03:47:49.502Z,97478.88
2022-11-20T03:50:19.845Z,97483.91
2022-11-20T03:52:48.106Z,97481.38
2022-11-20T03:55:16.624Z,97480.50
2022-11-20T03:57:44.954Z,97486.44
2022-11-20T04:00:14.760Z,97478.03
2022-11-20T04:02:42.952Z,97480.53
2022-11-20T04:05:12.685Z,97480.50
2022-11-20T04:07:42.932Z,97491.47
2022-11-20T04:10:11.376Z,97481.38
2022-11-20T04:12:39.759Z,97483.00
2022-11-20T04:15:09.367Z,97484.66
2022-11-20T04:17:37.903Z,97481.28
2022-11-20T04:20:08.491Z,97489.75
2022-11-20T04:22:36.988Z,97482.16
2022-11-20T04:25:08.104Z,97484.69
2022-11-20T04:27:36.421Z,97479.63
2022-11-20T04:30:05.514Z,97472.84
2022-11-20T04:32:33.656Z,97476.25
2022-11-20T04:35:02.624Z,97476.22
2022-11-20T04:37:31.219Z,97466.13
2022-11-20T04:39:59.663Z,97472.03
2022-11-20T04:42:32.044Z,97474.56
2022-11-20T04:45:00.445Z,97469.50
2022-11-20T04:47:29.351Z,97474.53
2022-11-20T04:49:57.757Z,97468.66
2022-11-20T04:52:26.184Z,97467.81
2022-11-20T04:54:55.883Z,97470.34
2022-11-20T04:57:24.421Z,97467.84
2022-11-20T04:59:55.030Z,97466.09
2022-11-20T05:02:23.513Z,97472.88
2022-11-20T05:04:51.868Z,97469.59
2022-11-20T05:07:20.608Z,97472.91
2022-11-20T05:09:49.396Z,97470.38
2022-11-20T05:12:17.736Z,97472.91
2022-11-20T05:14:45.816Z,97471.28
2022-11-20T05:17:15.950Z,97466.19
2022-11-20T05:19:44.328Z,97474.66
2022-11-20T05:22:12.509Z,97471.28
2022-11-20T05:24:41.085Z,97473.00
2022-11-20T05:27:09.452Z,97469.59
2022-11-20T05:29:38.071Z,97468.75
2022-11-20T05:32:10.357Z,97463.69
2022-11-20T05:34:40.254Z,97465.44
2022-11-20T05:37:08.451Z,97458.66
2022-11-20T05:39:36.925Z,97459.47
2022-11-20T05:42:22.891Z,97454.44
2022-11-20T05:44:51.089Z,97448.53
2022-11-20T05:47:19.687Z,97440.09
2022-11-20T05:49:49.404Z,97448.53
2022-11-20T05:52:17.618Z,97444.31
2022-11-20T05:54:46.359Z,97434.19
2022-11-20T05:57:15.261Z,97437.59
2022-11-20T05:59:44.078Z,97444.31
2022-11-20T06:02:12.216Z,97452.75
2022-11-20T06:04:41.330Z,97435.88
2022-11-20T06:07:11.429Z,97450.25
2022-11-20T06:09:40.051Z,97442.66
2022-11-20T06:12:09.240Z,97445.19
2022-11-20T06:14:37.523Z,97456.97
2022-11-20T06:17:05.615Z,97446.03
2022-11-20T06:19:33.789Z,97436.75
2022-11-20T06:22:02.074Z,97438.44
2022-11-20T06:24:31.566Z,97442.69
2022-11-20T06:26:59.872Z,97435.94
2022-11-20T06:29:32.715Z,97442.69
2022-11-20T06:32:02.160Z,97447.72
2022-11-20T06:34:30.526Z,97435.94
2022-11-20T06:36:58.975Z,97440.13
2022-11-20T06:39:27.524Z,97456.97
2022-11-20T06:41:58.985Z,97445.22
2022-11-20T06:44:28.091Z,97457.03
2022-11-20T06:46:56.419Z,97449.44
2022-11-20T06:49:25.233Z,97455.41
2022-11-20T06:51:53.635Z,97454.53
2022-11-20T06:54:22.089Z,97445.22
2022-11-20T06:56:50.389Z,97458.75
2022-11-20T06:59:20.663Z,97462.13
2022-11-20T07:01:49.282Z,97452.88
2022-11-20T07:04:17.469Z,97471.44
2022-11-20T07:06:45.873Z,97479.03
2022-11-20T07:09:14.234Z,97476.47
2022-11-20T07:11:42.517Z,97484.09
2022-11-20T07:14:10.745Z,97478.22
2022-11-20T07:16:40.554Z,97469.75
2022-11-20T07:19:08.987Z,97469.78
2022-11-20T07:21:37.094Z,97475.66
2022-11-20T07:24:05.560Z,97478.22
2022-11-20T07:26:33.760Z,97474.84
2022-11-20T07:29:01.951Z,97462.19
2022-11-20T07:31:30.288Z,97460.50
2022-11-20T07:34:00.368Z,97465.56
2022-11-20T07:36:28.954Z,97458.78
2022-11-20T07:38:57.228Z,97470.66
2022-11-20T07:41:25.670Z,97474.84
2022-11-20T07:43:54.391Z,97469.81
2022-11-20T07:46:22.793Z,97468.13
2022-11-20T07:48:51.153Z,97472.31
2022-11-20T07:51:21.720Z,97471.50
2022-11-20T07:53:50.790Z,97473.19
2022-11-20T07:56:19.543Z,97477.44
2022-11-20T07:58:48.368Z,97479.13
2022-11-20T08:01:16.796Z,97479.97
2022-11-20T08:03:45.235Z,97471.56
2022-11-20T08:06:14.111Z,97476.63
2022-11-20T08:08:44.136Z,97469.03
2022-11-20T08:11:29.822Z,97478.31
2022-11-20T08:14:16.879Z,97465.66
2022-11-20T08:16:47.531Z,97466.53
2022-11-20T08:19:16.867Z,97471.56
2022-11-20T08:21:46.277Z,97470.72
2022-11-20T08:24:16.516Z,97481.69
2022-11-20T08:26:44.759Z,97474.09
2022-11-20T08:29:15.491Z,97472.41
2022-11-20T08:31:44.920Z,97474.97
2022-11-20T08:34:18.620Z,97477.50
2022-11-20T08:36:47.665Z,97466.53
2022-11-20T08:39:18.502Z,97464.84
2022-11-20T08:41:46.939Z,97469.06
2022-11-20T08:44:15.100Z,97465.69
2022-11-20T08:46:46.986Z,97471.59
2022-11-20T08:49:16.835Z,97472.47
2022-11-20T08:51:45.236Z,97467.41
2022-11-20T08:54:13.557Z,97469.91
2022-11-20T08:56:43.713Z,97472.44
2022-11-20T08:59:31.652Z,97473.28
2022-11-20T09:02:00.257Z,97469.09
2022-11-20T09:04:28.559Z,97468.22
2022-11-20T09:06:56.806Z,97472.47
2022-11-20T09:09:25.565Z,97472.47
2022-11-20T09:11:55.667Z,97469.91
2022-11-20T09:14:30.258Z,97463.16
2022-11-20T09:16:59.272Z,97464.84
2022-11-20T09:19:35.511Z,97462.31
2022-11-20T09:22:04.997Z,97456.44
2022-11-20T09:24:34.163Z,97453.03
2022-11-20T09:27:06.485Z,97454.72
2022-11-20T09:29:35.859Z,97444.59
2022-11-20T09:32:04.755Z,97431.06
2022-11-20T09:34:34.470Z,97435.28
2022-11-20T09:37:06.388Z,97458.06
2022-11-20T09:39:40.002Z,97446.25
2022-11-20T09:42:30.096Z,97442.00
2022-11-20T09:45:14.309Z,97449.56
2022-11-20T09:48:01.897Z,97442.81
2022-11-20T09:50:35.515Z,97440.25
2022-11-20T09:53:14.513Z,97452.09
2022-11-20T09:55:42.998Z,97451.25
2022-11-20T09:58:33.458Z,97444.47
2022-11-20T10:01:12.207Z,97447.78
2022-11-20T10:03:48.557Z,97450.28
2022-11-20T10:06:20.947Z,97449.41
2022-11-20T10:08:58.741Z,97448.50
2022-11-20T10:11:36.542Z,97429.06
2022-11-20T10:14:18.539Z,97439.97
2022-11-20T10:17:02.884Z,97436.56
2022-11-20T10:19:40.631Z,97437.41
2022-11-20T10:22:18.763Z,97439.09
2022-11-20T10:24:55.536Z,97428.91
2022-11-20T10:27:43.395Z,97427.09
2022-11-20T10:30:15.639Z,97427.91
2022-11-20T10:32:47.074Z,97434.69
2022-11-20T10:35:24.988Z,97426.22
2022-11-20T10:37:58.054Z,97416.84
2022-11-20T10:40:33.217Z,97415.19
2022-11-20T10:43:05.395Z,97426.06
2022-11-20T10:45:48.204Z,97420.06
2022-11-20T10:48:25.945Z,97412.34
2022-11-20T10:51:17.929Z,97411.28
2022-11-20T10:54:01.272Z,97407.84
2022-11-20T10:56:38.687Z,97401.84
2022-11-20T10:59:48.488Z,97407.91
2022-11-20T11:02:21.173Z,97406.16
2022-11-20T11:04:52.417Z,97400.25
2022-11-20T11:07:28.039Z,97402.84
2022-11-20T11:09:58.162Z,97395.16
2022-11-20T11:12:39.672Z,97392.50
2022-11-20T11:15:15.095Z,97397.63
2022-11-20T11:17:50.371Z,97386.50
2022-11-20T11:20:20.861Z,97385.72
2022-11-20T11:22:51.811Z,97387.25
2022-11-20T11:25:28.110Z,97382.84
2022-11-20T11:27:58.129Z,97376.78
2022-11-20T11:30:29.448Z,97472.75
2022-11-20T11:33:12.458Z,97461.00
2022-11-20T11:35:51.389Z,97436.72
2022-11-20T11:38:24.102Z,97411.31
2022-11-20T11:40:59.345Z,97423.97
2022-11-20T11:43:48.444Z,97428.97
2022-11-20T11:46:35.808Z,97430.72
2022-11-20T11:49:19.849Z,97424.81
2022-11-20T11:52:01.791Z,97423.91
2022-11-20T11:54:37.355Z,97423.84
2022-11-20T11:57:17.833Z,97421.34
2022-11-20T11:59:59.919Z,97408.56
2022-11-20T12:02:38.144Z,97401.66
2022-11-20T12:05:19.136Z,97404.16
2022-11-20T12:07:50.297Z,97398.22
2022-11-20T12:10:24.543Z,97424.38
2022-11-20T12:12:57.222Z,97415.88
2022-11-20T12:15:33.278Z,97419.28
2022-11-20T12:18:04.034Z,97419.31
2022-11-20T12:20:44.797Z,97426.84
2022-11-20T12:23:23.387Z,97429.44
2022-11-20T12:26:00.275Z,97412.59
2022-11-20T12:28:46.159Z,97418.50
2022-11-20T12:31:41.784Z,97415.13
2022-11-20T12:34:30.456Z,97419.38
2022-11-20T12:37:11.470Z,97425.38
2022-11-20T12:39:43.860Z,97423.53
2022-11-20T12:43:02.284Z,97404.97
2022-11-20T12:45:57.066Z,97403.13
2022-11-20T12:48:46.607Z,97400.50
2022-11-20T12:51:33.234Z,97403.03
2022-11-20T12:54:36.428Z,97401.28
2022-11-20T12:57:12.362Z,97396.22
2022-11-20T13:00:03.561Z,97398.75
2022-11-20T13:02:44.474Z,97395.38
2022-11-20T13:05:23.375Z,97392.06
2022-11-20T13:07:54.522Z,97382.81
2022-11-20T13:10:34.304Z,97392.06
2022-11-20T13:13:11.552Z,97387.84
2022-11-20T13:15:51.628Z,97391.19
2022-11-20T13:18:21.507Z,97392.94
2022-11-20T13:20:51.273Z,97392.94
2022-11-20T13:23:27.407Z,97392.06
2022-11-20T13:26:08.979Z,97387.91
2022-11-20T13:28:38.406Z,97388.72
2022-11-20T13:31:12.816Z,97397.28
2022-11-20T13:33:41.876Z,97396.38
2022-11-20T13:36:24.258Z,97384.59
2022-11-20T13:38:55.060Z,97385.44
2022-11-20T13:41:35.289Z,97388.84
2022-11-20T13:44:16.686Z,97386.28
2022-11-20T13:46:47.727Z,97386.31
2022-11-20T13:49:24.254Z,97384.56
2022-11-20T13:51:55.491Z,97394.69
2022-11-20T13:55:01.146Z,97398.88
2022-11-20T13:58:01.459Z,97407.31
2022-11-20T14:00:29.991Z,97394.66
2022-11-20T14:03:13.411Z,97397.22
2022-11-20T14:05:51.145Z,97389.59
2022-11-20T14:08:27.740Z,97396.34
2022-11-20T14:11:06.022Z,97391.31
2022-11-20T14:13:35.999Z,97387.88
2022-11-20T14:16:04.549Z,97391.25
2022-11-20T14:18:33.043Z,97386.16
2022-11-20T14:21:03.243Z,97395.47
2022-11-20T14:23:32.221Z,97394.69
2022-11-20T14:26:00.518Z,97392.16
2022-11-20T14:28:30.395Z,97384.56
2022-11-20T14:31:00.596Z,97398.09
2022-11-20T14:33:29.411Z,97398.06
2022-11-20T14:36:00.011Z,97407.41
2022-11-20T14:38:30.667Z,97394.69
2022-11-20T14:41:09.094Z,97395.56
2022-11-20T14:43:39.221Z,97391.31
2022-11-20T14:46:11.397Z,97383.69
2022-11-20T14:48:43.455Z,97387.09
2022-11-20T14:51:12.974Z,97379.50
2022-11-20T14:53:41.267Z,97391.34
2022-11-20T14:56:11.495Z,97378.66
2022-11-20T14:58:39.978Z,97393.88
2022-11-20T15:01:14.625Z,97393.00
2022-11-20T15:03:44.176Z,97391.25
2022-11-20T15:06:14.567Z,97398.91
2022-11-20T15:08:53.523Z,97381.13
2022-11-20T15:11:27.940Z,97403.94
2022-11-20T15:13:56.556Z,97386.16
2022-11-20T15:16:29.078Z,97398.03
2022-11-20T15:18:57.687Z,97392.09
2022-11-20T15:21:30.474Z,97392.97
2022-11-20T15:24:00.599Z,97387.88
2022-11-20T15:26:30.570Z,97384.50
2022-11-20T15:28:59.002Z,97384.53
2022-11-20T15:31:29.942Z,97377.81
2022-11-20T15:33:59.281Z,97381.19
2022-11-20T15:36:29.026Z,97386.19
2022-11-20T15:38:57.463Z,97389.56
2022-11-20T15:41:26.695Z,97381.06
2022-11-20T15:43:56.063Z,97377.72
2022-11-20T15:46:29.154Z,97368.38
2022-11-20T15:48:59.777Z,97364.13
2022-11-20T15:51:31.744Z,97363.34
2022-11-20T15:54:00.757Z,97359.94
2022-11-20T15:56:29.339Z,97362.47
2022-11-20T15:58:57.680Z,97360.75
2022-11-20T16:01:26.041Z,97364.13
2022-11-20T16:03:55.305Z,97370.91
2022-11-20T16:06:25.049Z,97362.44
2022-11-20T16:08:53.599Z,97354.00
2022-11-20T16:11:21.881Z,97349.81
2022-11-20T16:14:07.780Z,97346.44
2022-11-20T16:16:37.569Z,97348.97
2022-11-20T16:19:06.344Z,97355.69
2022-11-20T16:21:38.736Z,97351.47
2022-11-20T16:24:09.796Z,97347.22
2022-11-20T16:26:38.788Z,97344.63
2022-11-20T16:29:08.505Z,97342.19
2022-11-20T16:31:38.827Z,97345.63
2022-11-20T16:34:12.416Z,97341.44
2022-11-20T16:36:43.242Z,97352.47
2022-11-20T16:39:12.269Z,97341.53
2022-11-20T16:41:42.281Z,97350.84
2022-11-20T16:44:12.591Z,97344.09
2022-11-20T16:46:42.095Z,97348.34
2022-11-20T16:49:14.817Z,97348.34
2022-11-20T16:51:44.384Z,97337.34
2022-11-20T16:54:16.336Z,97333.94
2022-11-20T16:56:48.176Z,97334.81
2022-11-20T16:59:16.629Z,97338.13
2022-11-20T17:01:45.133Z,97331.38
2022-11-20T17:04:13.673Z,97338.09
2022-11-20T17:06:47.275Z,97332.22
2022-11-20T17:09:16.567Z,97329.63
2022-11-20T17:11:45.570Z,97343.94
2022-11-20T17:14:15.121Z,97355.00
2022-11-20T17:16:44.125Z,97345.69
2022-11-20T17:19:12.822Z,97348.16
2022-11-20T17:21:40.936Z,97344.75
2022-11-20T17:24:12.857Z,97341.44
2022-11-20T17:26:43.093Z,97338.22
2022-11-20T17:29:15.212Z,97340.72
2022-11-20T17:31:44.565Z,97328.03
2022-11-20T17:34:18.029Z,97324.72
2022-11-20T17:36:46.820Z,97326.47
2022-11-20T17:39:18.255Z,97316.41
2022-11-20T17:42:07.050Z,97323.22
2022-11-20T17:44:35.735Z,97312.28
2022-11-20T17:47:04.187Z,97303.88
2022-11-20T17:49:32.919Z,97302.22
2022-11-20T17:52:01.415Z,97305.63
2022-11-20T17:54:31.490Z,97303.97
2022-11-20T17:57:16.990Z,97299.72
2022-11-20T17:59:46.189Z,97293.84
2022-11-20T18:02:15.143Z,97300.63
2022-11-20T18:04:46.089Z,97287.97
2022-11-20T18:07:14.465Z,97289.59
2022-11-20T18:09:44.183Z,97285.34
2022-11-20T18:12:12.420Z,97279.47
2022-11-20T18:14:41.502Z,97281.97
2022-11-20T18:17:11.838Z,97268.47
2022-11-20T18:19:51.549Z,97269.34
2022-11-20T18:22:24.272Z,97266.00
2022-11-20T18:24:54.076Z,97269.38
2022-11-20T18:27:23.947Z,97266.00
2022-11-20T18:29:53.640Z,97260.91
2022-11-20T18:32:23.211Z,97261.78
2022-11-20T18:34:52.379Z,97255.03
2022-11-20T18:37:21.741Z,97250.78
2022-11-20T18:39:50.595Z,97249.91
2022-11-20T18:42:37.830Z,97243.94
2022-11-20T18:45:06.940Z,97254.94
2022-11-20T18:47:40.962Z,97240.59
2022-11-20T18:50:11.505Z,97243.06
2022-11-20T18:52:42.497Z,97239.66
2022-11-20T18:55:12.049Z,97234.53
2022-11-20T18:57:42.478Z,97238.72
2022-11-20T19:00:12.150Z,97232.78
2022-11-20T19:02:43.276Z,97231.00
2022-11-20T19:05:13.752Z,97219.16
2022-11-20T19:07:43.023Z,97206.47
2022-11-20T19:10:11.853Z,97219.09
2022-11-20T19:12:42.180Z,97210.53
2022-11-20T19:15:11.710Z,97207.13
2022-11-20T19:17:40.577Z,97209.69
2022-11-20T19:20:09.385Z,97203.75
2022-11-20T19:22:37.802Z,97203.78
2022-11-20T19:25:07.319Z,97201.16
2022-11-20T19:27:35.901Z,97197.75
2022-11-20T19:30:09.253Z,97195.25
2022-11-20T19:32:38.263Z,97197.75
2022-11-20T19:35:07.658Z,97200.22
2022-11-20T19:37:36.927Z,97187.56
2022-11-20T19:40:06.437Z,97192.66
2022-11-20T19:42:35.283Z,97192.72
2022-11-20T19:45:03.799Z,97186.75
2022-11-20T19:48:01.043Z,97185.06
2022-11-20T19:50:22.738Z,97171.53
2022-11-20T19:52:55.831Z,97172.34
2022-11-20T19:55:28.096Z,97173.22
2022-11-20T19:57:56.765Z,97183.31
2022-11-20T20:00:32.348Z,97172.25
2022-11-20T20:03:03.077Z,97176.41
2022-11-20T20:05:31.917Z,97172.13
2022-11-20T20:08:00.270Z,97176.34
2022-11-20T20:10:29.267Z,97186.50
2022-11-20T20:12:57.820Z,97172.91
2022-11-20T20:15:26.428Z,97165.28
2022-11-20T20:17:55.249Z,97161.84
2022-11-20T20:20:25.747Z,97156.78
2022-11-20T20:22:54.279Z,97174.44
2022-11-20T20:25:23.029Z,97154.13
2022-11-20T20:27:55.646Z,97165.94
2022-11-20T20:30:24.787Z,97158.25
2022-11-20T20:32:56.695Z,97159.91
2022-11-20T20:35:26.688Z,97162.47
2022-11-20T20:37:55.227Z,97159.94
2022-11-20T20:40:23.547Z,97161.63
2022-11-20T20:42:51.733Z,97165.84
2022-11-20T20:45:20.524Z,97150.63
2022-11-20T20:47:49.062Z,97160.72
2022-11-20T20:50:17.923Z,97170.00
2022-11-20T20:52:50.101Z,97162.31
2022-11-20T20:55:18.791Z,97169.94
2022-11-20T20:57:46.949Z,97169.06
2022-11-20T21:00:16.148Z,97164.84
2022-11-20T21:02:44.430Z,97163.03
2022-11-20T21:05:12.942Z,97155.41
2022-11-20T21:08:01.377Z,97156.19
2022-11-20T21:10:31.520Z,97148.56
2022-11-20T21:12:59.913Z,97146.00
2022-11-20T21:15:28.603Z,97145.94
2022-11-20T21:17:57.067Z,97141.63
2022-11-20T21:20:48.246Z,97134.91
2022-11-20T21:23:16.747Z,97126.44
2022-11-20T21:25:46.551Z,97124.78
2022-11-20T21:28:18.167Z,97112.94
2022-11-20T21:30:46.935Z,97128.16
2022-11-20T21:33:15.519Z,97110.38
2022-11-20T21:35:44.154Z,97114.50
2022-11-20T21:38:12.985Z,97101.84
2022-11-20T21:40:41.918Z,97099.25
2022-11-20T21:43:11.892Z,97095.06
2022-11-20T21:45:40.399Z,97101.00
2022-11-20T21:48:08.703Z,97092.59
2022-11-20T21:50:37.460Z,97088.28
2022-11-20T21:53:06.184Z,97080.66
2022-11-20T21:55:34.640Z,97083.25
2022-11-20T21:58:03.093Z,97084.91
2022-11-20T22:00:33.250Z,97073.16
2022-11-20T22:03:01.916Z,97075.69
2022-11-20T22:05:31.752Z,97069.69
2022-11-20T22:08:00.257Z,97069.75
2022-11-20T22:10:29.046Z,97061.28
2022-11-20T22:13:17.476Z,97067.25
2022-11-20T22:16:00.186Z,97060.50
2022-11-20T22:18:30.137Z,97053.81
2022-11-20T22:20:58.741Z,97054.56
2022-11-20T22:23:27.893Z,97057.13
2022-11-20T22:25:57.066Z,97059.66
2022-11-20T22:28:25.743Z,97053.75
2022-11-20T22:30:59.581Z,97054.53
2022-11-20T22:33:28.480Z,97052.88
2022-11-20T22:36:01.987Z,97049.53
2022-11-20T22:38:33.006Z,97049.53
2022-11-20T22:41:05.397Z,97041.03
2022-11-20T22:43:34.673Z,97045.28
2022-11-20T22:46:09.990Z,97046.06
2022-11-20T22:48:39.979Z,97049.50
2022-11-20T22:51:10.032Z,97051.16
2022-11-20T22:53:38.999Z,97040.09
2022-11-20T22:56:08.541Z,97046.06
2022-11-20T22:58:38.598Z,97053.66
2022-11-20T23:01:12.766Z,97055.41
2022-11-20T23:03:41.855Z,97055.41
2022-11-20T23:06:10.900Z,97053.75
2022-11-20T23:08:41.132Z,97051.16
2022-11-20T23:11:11.303Z,97054.56
2022-11-20T23:13:40.396Z,97052.91
2022-11-20T23:16:13.584Z,97040.19
2022-11-20T23:18:42.584Z,97048.56
2022-11-20T23:21:14.024Z,97051.06
2022-11-20T23:23:42.928Z,97040.19
2022-11-20T23:26:14.112Z,97048.56
2022-11-20T23:28:43.791Z,97045.22
2022-11-20T23:31:15.372Z,97055.19
2022-11-20T23:33:45.204Z,97056.16
2022-11-20T23:36:14.044Z,97042.50
2022-11-20T23:38:42.554Z,97032.44
2022-11-20T23:41:11.873Z,97042.59
2022-11-20T23:43:41.894Z,97034.09
2022-11-20T23:46:15.264Z,97031.50
2022-11-20T23:48:47.266Z,97036.59
2022-11-20T23:51:16.802Z,97031.59
2022-11-20T23:53:46.001Z,97013.03
2022-11-20T23:56:16.195Z,97021.38
2022-11-20T23:58:44.798Z,97028.03
